^^
MeteoGriva-Weather Station Historical Data
Daily Summary for December 04, 2020 Units:  English    Metric   Both
Daily Weekly Monthly Yearly Custom
  High: Low: Average:
Temperature: 48.9 °F 43.2 °F 46.2 °F
Dew Point: 48.2 °F 42.3 °F 45.3 °F
Humidity: 100% 92.8% 97%
Wind Speed: 3.9mph 0mph 1.2mph
Wind Gust: 8.9mph - -
Wind- - SW
Pressure: 30 in 29.9 in -
Precipitation: 1.4 in    
Historical Graphs
 
 
Tabular Data for December 04, 2020
Time Temperature Dew Point Pressure Wind Wind Speed Wind Gust Humidity Rainfall Rate (Hourly) solar
00:04 43.7 °F 43.5 °F 30 in WSW 0.4 mph 2.9 mph 99.1% 0.03 in 0 W/m2
00:09 43.7 °F 43.5 °F 30 in SW 0.4 mph 2.2 mph 99.3% 0.03 in 0 W/m2
00:14 43.7 °F 43.3 °F 30 in West 0.4 mph 2.2 mph 98.6% 0.04 in 0 W/m2
00:19 43.7 °F 43.3 °F 30 in WSW 0.7 mph 2.2 mph 98.7% 0 in 0 W/m2
00:24 43.9 °F 43.2 °F 30 in NW 1.2 mph 4.5 mph 97.8% 0.01 in 0 W/m2
00:29 43.9 °F 43.3 °F 30 in North 3.4 mph 6 mph 97.5% 0.03 in 0 W/m2
00:34 44.1 °F 43.7 °F 30 in East 1.2 mph 3.8 mph 98.7% 0.02 in 0 W/m2
00:39 43.9 °F 43.7 °F 30 in WNW 1 mph 3.8 mph 99.3% 0.01 in 0 W/m2
00:44 43.7 °F 43.3 °F 30 in North 0.9 mph 2.7 mph 98.7% 0.06 in 0 W/m2
00:49 43.9 °F 43.3 °F 30 in ESE 0.6 mph 2.9 mph 97.8% 0.06 in 0 W/m2
00:54 43.9 °F 43.7 °F 30 in NW 0.5 mph 2.9 mph 98.9% 0.01 in 0 W/m2
00:59 43.9 °F 43.5 °F 30 in ENE 0.8 mph 4 mph 98.4% 0.01 in 0 W/m2
01:04 43.9 °F 43.5 °F 30 in ENE 0.7 mph 4 mph 98.4% 0 in 0 W/m2
01:09 44.1 °F 43.9 °F 30 in North 0.5 mph 2 mph 99% 0 in 0 W/m2
01:14 44.1 °F 43.9 °F 30 in East 0.3 mph 2 mph 99% 0 in 0 W/m2
01:19 44.1 °F 43.7 °F 30 in NNW 0.2 mph 1.8 mph 98.8% 0 in 0 W/m2
01:24 43.9 °F 43.7 °F 30 in East 1.1 mph 3.1 mph 99% 0 in 0 W/m2
01:29 43.9 °F 43.5 °F 30 in SSE 2.1 mph 5.4 mph 98.7% 0 in 0 W/m2
01:34 43.9 °F 43.5 °F 30 in SE 1.7 mph 4.9 mph 98.7% 0 in 0 W/m2
01:39 43.9 °F 43.7 °F 30 in SSW 1.7 mph 5.4 mph 98.8% 0 in 0 W/m2
01:44 43.7 °F 43.7 °F 30 in SSW 1.4 mph 3.6 mph 99.2% 0 in 0 W/m2
01:49 43.7 °F 43.5 °F 30 in SSW 1.1 mph 4.5 mph 99.2% 0 in 0 W/m2
01:54 43.7 °F 43.5 °F 30 in West 0.6 mph 3.6 mph 99% 0 in 0 W/m2
01:59 43.7 °F 43.5 °F 30 in WNW 0.5 mph 3.8 mph 99% 0 in 0 W/m2
02:04 43.5 °F 43.3 °F 30 in WNW 0.2 mph 1.8 mph 99% 0 in 0 W/m2
02:09 43.5 °F 43.3 °F 30 in SSW 1.7 mph 4.9 mph 99% 0 in 0 W/m2
02:14 43.7 °F 43.3 °F 30 in SSW 1.5 mph 4.9 mph 98.6% 0 in 0 W/m2
02:19 43.7 °F 43.7 °F 30 in SW 0.4 mph 3.6 mph 99.9% 0 in 0 W/m2
02:24 43.5 °F 43.3 °F 30 in SSE 0.6 mph 3.1 mph 99.3% 0 in 0 W/m2
02:29 43.7 °F 43.7 °F 30 in SW 0.1 mph 3.1 mph 99.9% 0 in 0 W/m2
02:34 43.7 °F 43.7 °F 30 in South 1.1 mph 3.6 mph 100% 0 in 0 W/m2
02:39 43.7 °F 43.5 °F 30 in WSW 0.9 mph 3.6 mph 99.2% 0 in 0 W/m2
02:44 43.7 °F 43.3 °F 30 in South 1.1 mph 3.6 mph 98.2% 0 in 0 W/m2
02:49 43.9 °F 43.7 °F 30 in West 0.2 mph 2.7 mph 99% 0 in 0 W/m2
02:54 43.9 °F 43.7 °F 30 in SW 0.4 mph 2.9 mph 99.2% 0 in 0 W/m2
02:59 43.7 °F 43.5 °F 30 in South 0.5 mph 2.9 mph 99.4% 0 in 0 W/m2
03:04 43.7 °F 43.7 °F 30 in SSE 0.4 mph 2.2 mph 99.7% 0 in 0 W/m2
03:09 43.7 °F 43.7 °F 30 in Calm   2 mph 100% 0 in 0 W/m2
03:14 43.7 °F 43.5 °F 30 in Calm     99.5% 0 in 0 W/m2
03:19 43.7 °F 43.5 °F 30 in North 1.5 mph 3.4 mph 99.3% 0 in 0 W/m2
03:24 43.7 °F 43.5 °F 30 in NE 0.5 mph 3.4 mph 99.1% 0 in 0 W/m2
03:27 43.7 °F 43.5 °F 30 in Calm   1.8 mph 99% 0 in 0 W/m2
05:09 44.2 °F 43 °F 30 in North 2.7 mph 3.1 mph 95% 0 in 0 W/m2
05:14 44.2 °F 43 °F 30 in North 0.7 mph 3.4 mph 95% 0 in 0 W/m2
05:19 44.2 °F 43 °F 30 in NNW 0.9 mph 2.7 mph 95% 0 in 0 W/m2
05:24 44.2 °F 43 °F 30 in North 2.2 mph 5.1 mph 95.1% 0 in 0 W/m2
05:29 44.2 °F 42.8 °F 30 in NNE 0.5 mph 5.1 mph 94.6% 0 in 0 W/m2
05:34 44.2 °F 42.6 °F 30 in NE 2.1 mph 4 mph 93.8% 0 in 0 W/m2
05:39 44.2 °F 42.8 °F 30 in NW 2 mph 3.6 mph 94.7% 0 in 0 W/m2
05:44 44.2 °F 43.2 °F 30 in NNW 0.9 mph 3.1 mph 96% 0 in 0 W/m2
05:49 44.1 °F 43.2 °F 30 in South 1.1 mph 3.6 mph 96.2% 0 in 0 W/m2
05:54 44.1 °F 43 °F 30 in Calm   2.5 mph 95.5% 0 in 0 W/m2
05:59 44.1 °F 43 °F 30 in Calm     95.8% 0 in 0 W/m2
06:04 44.1 °F 42.8 °F 30 in NNW 1.6 mph 3.1 mph 95.1% 0 in 0 W/m2
06:09 44.2 °F 43 °F 30 in NNW 3 mph 5.4 mph 94.9% 0 in 0 W/m2
06:14 44.2 °F 43 °F 30 in NNW 3 mph 5.1 mph 95.3% 0 in 0 W/m2
06:19 44.2 °F 43 °F 30 in NNE 1.4 mph 4.5 mph 94.8% 0 in 0 W/m2
06:24 44.2 °F 42.3 °F 30 in NE 1.3 mph 2.7 mph 92.9% 0 in 0 W/m2
06:29 44.2 °F 42.6 °F 30 in NW 1.7 mph 5.6 mph 93.9% 0 in 0 W/m2
06:34 44.2 °F 42.8 °F 30 in NNW 1.1 mph 3.6 mph 94.5% 0.2 in 0 W/m2
06:39 44.2 °F 42.8 °F 30 in North 3 mph 6.7 mph 94.4% 0.31 in 0 W/m2
06:44 44.2 °F 42.8 °F 30 in North 2.6 mph 7.2 mph 94.4% 0.16 in 0 W/m2
06:49 44.4 °F 42.4 °F 30 in NNE 2.7 mph 7.2 mph 92.9% 0.18 in 0 W/m2
06:54 44.2 °F 43 °F 30 in NNW 2.5 mph 4.9 mph 95% 0.09 in 0 W/m2
06:59 44.2 °F 43.2 °F 30 in NNE 2.2 mph 4.7 mph 96.1% 0.1 in 0 W/m2
07:04 43.9 °F 43.2 °F 30 in NNW 1.4 mph 4.7 mph 97.1% 0.14 in 0 W/m2
07:09 43.9 °F 43.2 °F 30 in NNW 1.6 mph 3.8 mph 97% 0.11 in 0 W/m2
07:14 43.9 °F 43 °F 30 in NW 1.7 mph 3.8 mph 96.2% 0.04 in 0 W/m2
07:19 43.9 °F 42.6 °F 30 in NNW 0.1 mph 3.8 mph 95.2% 0.04 in 0 W/m2
07:24 44.1 °F 43 °F 30 in NE 1.2 mph 3.8 mph 95.7% 0.01 in 0 W/m2
07:29 43.9 °F 42.8 °F 30 in NW 3.1 mph 4.7 mph 95.6% 0.04 in 0 W/m2
07:34 44.1 °F 42.8 °F 30 in SSE 0.7 mph 4 mph 95.6% 0.04 in 0 W/m2
07:39 44.1 °F 42.8 °F 30 in NNW 2.7 mph 5.6 mph 95% 0.04 in 0 W/m2
07:44 44.1 °F 43.2 °F 30 in North 3.9 mph 7.8 mph 96.4% 0.03 in 0 W/m2
07:49 44.1 °F 42.8 °F 30 in NNE 2.7 mph 7.8 mph 95.2% 0.02 in 0 W/m2
07:54 44.1 °F 42.4 °F 30 in North 2.4 mph 5.8 mph 94.2% 0.02 in 0 W/m2
07:59 44.1 °F 42.8 °F 30 in NW 1.1 mph 3.8 mph 94.8% 0.01 in 0 W/m2
08:04 44.1 °F 43 °F 30 in ENE 1.4 mph 3.6 mph 95.6% 0.01 in 0 W/m2
08:09 44.1 °F 43.2 °F 30 in North 2.3 mph 3.4 mph 96.4% 0 in 0 W/m2
08:14 44.1 °F 43 °F 30 in NNW 2.6 mph 4.5 mph 95.8% 0 in 2 W/m2
08:19 44.1 °F 43.3 °F 30 in North 0.9 mph 3.8 mph 97% 0.01 in 2 W/m2
08:24 44.1 °F 43.3 °F 30 in Calm   2 mph 97% 0.01 in 2 W/m2
08:29 44.1 °F 43.3 °F 30 in North 1.6 mph 2.7 mph 97.2% 0.43 in 3 W/m2
08:34 44.1 °F 43.3 °F 30 in North 2.3 mph 4.3 mph 97.2% 0.43 in 3 W/m2
08:39 44.1 °F 43.5 °F 30 in North 2.5 mph 4.3 mph 97.8% 0.3 in 3 W/m2
08:44 44.1 °F 43.5 °F 30 in North 2.1 mph 4.9 mph 97.7% 0.25 in 3 W/m2
08:49 44.1 °F 43.7 °F 30 in NE 3.8 mph 5.6 mph 98.6% 0.2 in 3 W/m2
08:54 43.5 °F 43.5 °F 30 in North 3.1 mph 6.7 mph 99.6% 0.25 in 3 W/m2
08:59 43.2 °F 43.2 °F 30 in NNE 2 mph 5.1 mph 100% 0.25 in 4 W/m2
09:04 43.2 °F 43.2 °F 30 in NNW 1.8 mph 4.7 mph 99.9% 0.39 in 5 W/m2
10:44 44.1 °F 44.1 °F 30 in Calm     100% 0.23 in 8 W/m2
10:49 44.1 °F 44.1 °F 30 in NNE 1.1 mph 3.8 mph 100% 0.25 in 8 W/m2
10:54 44.1 °F 44.1 °F 30 in NE 2 mph 5.4 mph 100% 0.25 in 10 W/m2
10:59 43.9 °F 43.9 °F 30 in West 2.6 mph 8.9 mph 99.9% 0.31 in 18 W/m2
11:04 44.4 °F 43.5 °F 30 in SW 3.5 mph 8.9 mph 96.6% 0.53 in 18 W/m2
11:09 45.1 °F 43.7 °F 30 in SSW 2.2 mph 6.7 mph 94.2% 0.36 in 16 W/m2
11:14 45.3 °F 44.4 °F 30 in NW 1.3 mph 3.8 mph 96.6% 0.2 in 15 W/m2
11:19 45.3 °F 44.6 °F 30 in NNE 1.4 mph 3.8 mph 97% 0.11 in 11 W/m2
11:24 45.3 °F 44.6 °F 30 in ENE 1.6 mph 3.8 mph 97.5% 0.11 in 14 W/m2
11:29 45.1 °F 44.6 °F 30 in NNW 3 mph 4.7 mph 97.8% 0.01 in 14 W/m2
11:34 45.1 °F 44.6 °F 30 in NNW 1.2 mph 4.7 mph 97.7% 0.01 in 12 W/m2
11:39 45.3 °F 44.6 °F 30 in NW 1.9 mph 3.8 mph 97% 0.39 in 12 W/m2
11:44 45.5 °F 44.4 °F 30 in ESE 1.1 mph 4.9 mph 96.3% 0.74 in 13 W/m2
11:49 45.5 °F 44.4 °F 30 in SSW 1.2 mph 4.9 mph 96.1% 0.74 in 18 W/m2
11:54 45.5 °F 44.8 °F 29.9 in SE 0.2 mph 3.4 mph 97% 0.76 in 20 W/m2
11:59 45.3 °F 44.6 °F 29.9 in NW 2.5 mph 4.9 mph 96.9% 0.47 in 22 W/m2
12:04 45.5 °F 44.4 °F 29.9 in ENE 1.2 mph 4.9 mph 96.3% 0.33 in 14 W/m2
12:09 45.3 °F 44.6 °F 29.9 in West 1.7 mph 4.3 mph 97.2% 0.19 in 12 W/m2
12:14 45.5 °F 44.6 °F 29.9 in Calm   4.3 mph 96.8% 0.02 in 11 W/m2
12:19 45.5 °F 44.6 °F 29.9 in WNW 2.3 mph 4.5 mph 96.5% 0 in 8 W/m2
12:24 45.7 °F 44.6 °F 29.9 in NW 1.8 mph 4 mph 95.8% 0.02 in 7 W/m2
12:29 45.9 °F 44.8 °F 29.9 in WNW 1.1 mph 3.8 mph 96% 0.02 in 8 W/m2
12:34 45.9 °F 44.8 °F 29.9 in WNW 0.4 mph 3.8 mph 95.6% 0.02 in 10 W/m2
12:39 46 °F 45.1 °F 29.9 in North 1.9 mph 4.5 mph 96.4% 0.09 in 11 W/m2
12:44 45.7 °F 45.3 °F 29.9 in North 3 mph 5.1 mph 98.5% 0.09 in 13 W/m2
12:49 45.5 °F 45.1 °F 29.9 in North 0.7 mph 4.3 mph 98.6% 0.07 in 10 W/m2
12:54 45.3 °F 45.1 °F 29.9 in NW 0.5 mph 2.5 mph 98.9% 0.05 in 11 W/m2
12:59 45.3 °F 45 °F 29.9 in WSW 1.1 mph 6.7 mph 98.3% 0.04 in 12 W/m2
13:04 45.7 °F 44.8 °F 29.9 in NE 1.1 mph 6.7 mph 96.7% 0.82 in 9 W/m2
13:09 45.7 °F 45.3 °F 29.9 in NW 1.1 mph 2.5 mph 98.4% 0.02 in 10 W/m2
13:14 45.7 °F 45.3 °F 29.9 in North 2.1 mph 4.9 mph 98.4% 0.02 in 8 W/m2
13:19 45.7 °F 45.1 °F 29.9 in NNW 2.1 mph 4.9 mph 97.8% 0.03 in 12 W/m2
13:24 45.7 °F 45.1 °F 29.9 in NNW 1.9 mph 4.5 mph 98.2% 0.03 in 10 W/m2
13:29 45.9 °F 45.1 °F 29.9 in NNW 1.6 mph 4.5 mph 97.3% 0 in 7 W/m2
13:34 45.9 °F 45.1 °F 29.9 in NW 2.3 mph 4.7 mph 97.1% 0 in 7 W/m2
13:39 46 °F 45 °F 29.9 in NW 1.4 mph 5.6 mph 96.2% 0.04 in 7 W/m2
13:44 46.2 °F 45.1 °F 29.9 in NW 1.6 mph 4.3 mph 96.3% 0.03 in 8 W/m2
13:49 46.2 °F 45 °F 29.9 in NW 0.9 mph 4.3 mph 95.5% 0.16 in 8 W/m2
13:54 46.4 °F 45.1 °F 29.9 in NE 2.1 mph 4.9 mph 95% 0.13 in 8 W/m2
13:59 46.6 °F 45.3 °F 29.9 in NNE 1.5 mph 5.4 mph 95.4% 0.01 in 9 W/m2
14:04 46.6 °F 45.3 °F 29.9 in North 1.6 mph 4.5 mph 95.7% 0.02 in 9 W/m2
14:09 46.6 °F 45.3 °F 29.9 in NW 1.5 mph 3.1 mph 95.5% 0.04 in 9 W/m2
14:14 46.8 °F 45.5 °F 29.9 in NNW 2 mph 3.1 mph 95.6% 0.08 in 8 W/m2
14:19 46.8 °F 45.5 °F 29.9 in SSW 1.2 mph 3.8 mph 95.6% 0.2 in 6 W/m2
14:24 46.8 °F 45.1 °F 29.9 in NW 1.7 mph 4.7 mph 94.6% 0.35 in 5 W/m2
14:29 46.9 °F 45.3 °F 29.9 in West 1.7 mph 4.7 mph 93.9% 0.18 in 5 W/m2
14:34 47.1 °F 45.1 °F 29.9 in NE 2.3 mph 7.6 mph 92.8% 0.1 in 5 W/m2
14:39 46.9 °F 46.2 °F 29.9 in NW 1.7 mph 7.6 mph 97.2% 0.07 in 5 W/m2
14:44 46.8 °F 46 °F 29.9 in NNW 1.6 mph 2.7 mph 97.8% 0.12 in 5 W/m2
14:49 46.6 °F 45.9 °F 29.9 in SW 1.5 mph 7.2 mph 97.3% 0.36 in 5 W/m2
14:54 46.8 °F 45.5 °F 29.9 in SSW 1.4 mph 7.2 mph 95.6% 0.36 in 8 W/m2
14:59 46.9 °F 45.7 °F 29.9 in NE 1.3 mph 4.5 mph 95.7% 0.26 in 6 W/m2
15:04 46.9 °F 45.7 °F 29.9 in NE 0.2 mph 3.6 mph 95.5% 0.2 in 5 W/m2
15:09 47.1 °F 45.7 °F 29.9 in SW 1.1 mph 4.5 mph 95.2% 0.24 in 5 W/m2
15:14 47.1 °F 46 °F 29.9 in West 0.4 mph 3.1 mph 96% 0.61 in 6 W/m2
15:19 46.9 °F 46 °F 29.9 in SSW 1.5 mph 4.9 mph 96.2% 0.61 in 7 W/m2
15:24 47.1 °F 46 °F 29.9 in WNW 1.1 mph 4.7 mph 96% 0.47 in 8 W/m2
15:29 46.9 °F 46 °F 29.9 in NNW 1.2 mph 3.1 mph 96.4% 0.44 in 5 W/m2
15:34 47.1 °F 46 °F 29.9 in West 0.8 mph 3.6 mph 96% 0.49 in 3 W/m2
15:39 47.1 °F 45.9 °F 29.9 in SW 2.8 mph 4.5 mph 95.6% 0.71 in 6 W/m2
15:44 47.3 °F 45.9 °F 29.9 in SSW 1.9 mph 5.8 mph 94.9% 0.61 in 6 W/m2
15:49 47.5 °F 46 °F 29.9 in ESE 1 mph 5.8 mph 94.9% 1.21 in 6 W/m2
15:54 47.5 °F 46.6 °F 29.9 in South 1.5 mph 4.7 mph 96.5% 1.21 in 12 W/m2
15:59 47.5 °F 46.2 °F 29.9 in South 2.2 mph 8.7 mph 95.8% 1.06 in 12 W/m2
16:04 47.7 °F 46.6 °F 29.9 in SW 1.4 mph 4.3 mph 95.9% 0.83 in 10 W/m2
16:09 47.7 °F 46.4 °F 29.9 in WSW 1.1 mph 3.1 mph 95.6% 0.77 in 7 W/m2
16:14 47.7 °F 46.8 °F 29.9 in SW 0.8 mph 2.9 mph 96.7% 0.78 in 10 W/m2
16:19 47.5 °F 46.6 °F 29.9 in WNW 0.2 mph 2 mph 96.7% 0.43 in 10 W/m2
16:24 47.5 °F 46.9 °F 29.9 in West 1.2 mph 3.1 mph 97.6% 0.13 in 5 W/m2
16:29 47.5 °F 46.6 °F 29.9 in West 1 mph 3.1 mph 96.8% 0.2 in 4 W/m2
16:34 47.5 °F 46.4 °F 29.9 in NW 1.4 mph 2.7 mph 96.1% 0.35 in 4 W/m2
16:39 47.7 °F 46.4 °F 29.9 in WNW 1 mph 3.6 mph 95.5% 0.26 in 3 W/m2
16:44 47.8 °F 46.4 °F 29.9 in NW 2.1 mph 4.9 mph 95.2% 0.19 in 2 W/m2
16:49 48 °F 46.4 °F 29.9 in WNW 0.9 mph 4 mph 94.4% 0.16 in 2 W/m2
16:54 48.2 °F 46.8 °F 29.9 in West 1.1 mph 3.8 mph 94.7% 0.04 in 0 W/m2
16:59 48.2 °F 46.6 °F 29.9 in WNW 0.9 mph 4.9 mph 94.1% 0.22 in 0 W/m2
17:04 48.2 °F 46.9 °F 29.9 in NNW 0.9 mph 2.9 mph 95.3% 0.04 in 0 W/m2
17:09 48.2 °F 47.1 °F 29.9 in West 0.4 mph 2.9 mph 96% 0 in 0 W/m2
17:14 48.2 °F 46.9 °F 29.9 in WNW 1.1 mph 3.8 mph 95.3% 0 in 0 W/m2
17:19 48.4 °F 46.9 °F 29.9 in South 0.9 mph 4.3 mph 95.1% 0 in 0 W/m2
17:24 48.4 °F 46.9 °F 29.9 in NW 1.2 mph 3.6 mph 94.8% 0 in 0 W/m2
17:29 48.4 °F 46.9 °F 29.9 in NW 1.1 mph 3.6 mph 95.1% 0 in 0 W/m2
17:34 48.6 °F 46.9 °F 29.9 in NNW 2.5 mph 4.3 mph 94.1% 0 in 0 W/m2
17:39 48.6 °F 47.3 °F 29.9 in NNW 2.6 mph 4.3 mph 95.8% 0 in 0 W/m2
17:44 48.2 °F 47.3 °F 29.9 in WNW 1.7 mph 4.3 mph 97% 0 in 0 W/m2
17:49 48.2 °F 47.1 °F 29.9 in WSW 0.9 mph 3.1 mph 96.5% 0 in 0 W/m2
17:54 48.2 °F 47.1 °F 29.9 in East 0.8 mph 3.6 mph 96.2% 0 in 0 W/m2
17:59 48.2 °F 47.3 °F 29.9 in NW 1.1 mph 2.2 mph 97.1% 0 in 0 W/m2
18:04 48 °F 47.3 °F 29.9 in WNW 0.5 mph 2.2 mph 97.4% 0 in 0 W/m2
18:09 48 °F 47.1 °F 29.9 in NNE 0.3 mph 3.1 mph 96.6% 0 in 0 W/m2
18:14 48.2 °F 47.1 °F 29.9 in NNW 0.4 mph 3.1 mph 96% 0 in 0 W/m2
18:19 48.4 °F 47.3 °F 29.9 in NW 0.6 mph 2.9 mph 95.8% 0 in 0 W/m2
18:24 48.6 °F 47.1 °F 29.9 in WSW 0.8 mph 3.1 mph 95.1% 0 in 0 W/m2
18:29 48.6 °F 47.7 °F 29.9 in NW 0.4 mph 2.7 mph 97.2% 0 in 0 W/m2
18:34 48.2 °F 47.7 °F 29.9 in NW 1.7 mph 3.1 mph 98% 0 in 0 W/m2
18:39 48.2 °F 47.5 °F 29.9 in West 1 mph 3.1 mph 97% 0 in 0 W/m2
18:44 48.6 °F 47.5 °F 29.9 in West 0.2 mph 2.9 mph 96% 0 in 0 W/m2
18:49 48.7 °F 47.7 °F 30 in Calm   1.8 mph 96% 0 in 0 W/m2
18:54 48.7 °F 47.8 °F 30 in NW 0.1 mph 2.9 mph 96.8% 0 in 0 W/m2
18:59 48.7 °F 47.7 °F 30 in Calm   2.9 mph 96% 0 in 0 W/m2
19:04 48.7 °F 47.8 °F 30 in NNE 0.7 mph 2.7 mph 96.6% 0 in 0 W/m2
19:09 48.7 °F 48.2 °F 30 in NNW 1.3 mph 2.7 mph 98% 0 in 0 W/m2
19:14 48.6 °F 47.7 °F 30 in NW 0.9 mph 2.9 mph 97% 0 in 0 W/m2
19:19 48.6 °F 47.7 °F 30 in NW 1.4 mph 2.9 mph 97% 0 in 0 W/m2
19:24 48.6 °F 48 °F 30 in NNW 0.9 mph 2.2 mph 97.8% 0 in 0 W/m2
19:29 48.6 °F 48 °F 30 in North 1.8 mph 3.1 mph 97.8% 0 in 0 W/m2
19:34 48.6 °F 47.8 °F 30 in NNW 1.6 mph 3.8 mph 97.6% 0 in 0 W/m2
19:39 48.6 °F 48 °F 30 in NNW 1.1 mph 2.9 mph 98% 0 in 0 W/m2
19:44 48.7 °F 47.8 °F 30 in NNW 1.1 mph 2.9 mph 97% 0 in 0 W/m2
19:49 48.7 °F 47.8 °F 30 in Calm   2 mph 97% 0 in 0 W/m2
19:54 48.7 °F 48 °F 30 in Calm     97.7% 0 in 0 W/m2
19:59 48.6 °F 48 °F 30 in Calm     98% 0 in 0 W/m2
20:04 48.4 °F 48 °F 30 in Calm     98.4% 0 in 0 W/m2
20:09 48.4 °F 48 °F 30 in Calm     98.4% 0 in 0 W/m2
20:14 48.4 °F 47.8 °F 30 in Calm     98% 0 in 0 W/m2
20:19 48.6 °F 47.8 °F 30 in NNE 0.7 mph 2.2 mph 97.6% 0 in 0 W/m2
20:24 48.6 °F 47.7 °F 30 in NNE 1.4 mph 2.7 mph 97.1% 0 in 0 W/m2
20:29 48.7 °F 47.8 °F 30 in North 1.1 mph 2.2 mph 97% 0 in 0 W/m2
20:34 48.7 °F 47.8 °F 30 in North 1.7 mph 2.9 mph 97% 0 in 0 W/m2
20:39 48.7 °F 47.8 °F 30 in NNW 1.4 mph 2.9 mph 97.2% 0 in 0 W/m2
20:44 48.7 °F 47.8 °F 30 in NNW 1.1 mph 3.1 mph 97% 0 in 0 W/m2
20:49 48.9 °F 48 °F 30 in NNW 0.4 mph 2.7 mph 97.2% 0 in 0 W/m2
20:54 48.9 °F 48.2 °F 30 in North 1.7 mph 3.6 mph 97.4% 0 in 0 W/m2
20:59 48.9 °F 48.2 °F 30 in North 1.1 mph 3.6 mph 97.6% 0 in 0 W/m2
21:04 48.7 °F 48.2 °F 30 in Calm   2.5 mph 97.8% 0 in 0 W/m2
21:09 48.7 °F 48.2 °F 30 in NNE 0.6 mph 2 mph 98% 0 in 0 W/m2
21:14 48.6 °F 47.8 °F 30 in NNE 2.4 mph 3.4 mph 97.6% 0 in 0 W/m2
21:19 48.7 °F 47.8 °F 30 in North 1.4 mph 3.1 mph 96.8% 0 in 0 W/m2
21:24 48.7 °F 47.8 °F 30 in North 1.9 mph 3.1 mph 97% 0 in 0 W/m2
21:29 48.7 °F 47.8 °F 30 in North 1.7 mph 3.1 mph 97% 0 in 0 W/m2
21:34 48.7 °F 47.8 °F 30 in NNW 1.6 mph 3.1 mph 97.1% 0 in 0 W/m2
21:39 48.6 °F 47.8 °F 30 in NNW 1.4 mph 3.1 mph 98% 0 in 0 W/m2
21:44 48.4 °F 47.8 °F 30 in NW 1.4 mph 3.6 mph 98% 0 in 0 W/m2
21:49 48.6 °F 47.8 °F 30 in NW 1.6 mph 3.6 mph 98% 0 in 0 W/m2
21:54 48.6 °F 48 °F 30 in NW 1.6 mph 3.4 mph 98% 0 in 0 W/m2
21:59 48.6 °F 48 °F 30 in NNW 0.7 mph 2.9 mph 98% 0 in 0 W/m2
22:04 48.6 °F 48 °F 30 in Calm   2.9 mph 98% 0 in 0 W/m2
22:09 48.6 °F 48 °F 30 in North 0.7 mph 2 mph 98% 0 in 0 W/m2
22:14 48.6 °F 48 °F 30 in North 0.6 mph 2.2 mph 98% 0 in 0 W/m2
22:19 48.6 °F 48 °F 30 in North 2 mph 3.6 mph 98% 0 in 0 W/m2
22:24 48.7 °F 47.8 °F 30 in NNE 0.5 mph 3.6 mph 97.1% 0 in 0 W/m2
22:29 48.7 °F 47.8 °F 30 in NE 0.2 mph 1.8 mph 97.3% 0 in 0 W/m2
22:34 48.6 °F 47.8 °F 30 in Calm   1.8 mph 98% 0 in 0 W/m2
22:39 48.6 °F 47.8 °F 30 in WNW 0.1 mph 1.8 mph 97.5% 0 in 0 W/m2
22:44 48.7 °F 47.7 °F 30 in NE 0.7 mph 3.6 mph 96.4% 0 in 0 W/m2
22:49 48.6 °F 47.7 °F 30 in NW 0.7 mph 2.5 mph 97% 0 in 0 W/m2
22:54 48.7 °F 47.7 °F 30 in Calm     96.2% 0 in 0 W/m2
22:59 48.6 °F 47.8 °F 30 in NNE 0.2 mph 1.8 mph 97.2% 0 in 0 W/m2
23:04 48.4 °F 47.7 °F 30 in Calm   2 mph 97.8% 0 in 0 W/m2
23:09 48.4 °F 47.5 °F 30 in Calm     96.8% 0 in 0 W/m2
23:14 48.4 °F 47.5 °F 30 in Calm     97% 0 in 0 W/m2
23:19 48.2 °F 47.1 °F 30 in NNE 1 mph 2.7 mph 96.2% 0 in 0 W/m2
23:24 48.4 °F 47.5 °F 30 in NW 1.9 mph 3.6 mph 96.6% 0 in 0 W/m2
23:29 48.4 °F 47.3 °F 30 in NW 2.1 mph 3.6 mph 96.2% 0 in 0 W/m2
23:34 48.6 °F 47.3 °F 30 in NW 1.7 mph 3.6 mph 95.8% 0 in 0 W/m2
23:39 48.7 °F 47.7 °F 30 in NW 1.2 mph 2.9 mph 96.4% 0 in 0 W/m2
23:44 48.7 °F 47.8 °F 30 in NNW 1.5 mph 3.8 mph 97% 0 in 0 W/m2
23:49 48.7 °F 47.8 °F 30 in NNW 1.6 mph 3.8 mph 97% 0 in 0 W/m2
23:54 48.7 °F 47.8 °F 30 in North 1.6 mph 3.6 mph 97% 0 in 0 W/m2
23:59 48.9 °F 48 °F 30 in NNW 1.7 mph 4.3 mph 97% 0 in 0 W/m2
Juneau County Weather
Compliments of Weather Underground - 2 mb